sensor_id;sensor_type;location;lat;lon;timestamp;temperature;humidity
6756;DHT22;3415;51.148;7.014;2023-06-22T00:00:49;22.60;99.90
6756;DHT22;3415;51.148;7.014;2023-06-22T00:03:17;22.60;99.90
6756;DHT22;3415;51.148;7.014;2023-06-22T00:05:45;22.60;99.90
6756;DHT22;3415;51.148;7.014;2023-06-22T00:08:12;22.60;99.90
6756;DHT22;3415;51.148;7.014;2023-06-22T00:10:39;22.60;99.90
6756;DHT22;3415;51.148;7.014;2023-06-22T00:13:07;22.50;99.90
6756;DHT22;3415;51.148;7.014;2023-06-22T00:15:36;22.50;99.90
6756;DHT22;3415;51.148;7.014;2023-06-22T00:18:04;22.50;99.90
6756;DHT22;3415;51.148;7.014;2023-06-22T00:20:31;22.50;99.90
6756;DHT22;3415;51.148;7.014;2023-06-22T00:23:02;22.50;99.90
6756;DHT22;3415;51.148;7.014;2023-06-22T00:25:31;22.50;99.90
6756;DHT22;3415;51.148;7.014;2023-06-22T00:27:58;22.50;99.90
6756;DHT22;3415;51.148;7.014;2023-06-22T00:30:25;22.50;99.90
6756;DHT22;3415;51.148;7.014;2023-06-22T00:32:54;22.50;99.90
6756;DHT22;3415;51.148;7.014;2023-06-22T00:35:21;22.50;99.90
6756;DHT22;3415;51.148;7.014;2023-06-22T00:37:48;22.50;99.90
6756;DHT22;3415;51.148;7.014;2023-06-22T00:40:15;22.50;99.90
6756;DHT22;3415;51.148;7.014;2023-06-22T00:42:47;22.60;99.90
6756;DHT22;3415;51.148;7.014;2023-06-22T00:45:13;22.50;99.90
6756;DHT22;3415;51.148;7.014;2023-06-22T00:47:41;22.50;99.90
6756;DHT22;3415;51.148;7.014;2023-06-22T00:50:12;22.50;99.90
6756;DHT22;3415;51.148;7.014;2023-06-22T00:52:44;22.50;99.90
6756;DHT22;3415;51.148;7.014;2023-06-22T00:55:12;22.50;99.90
6756;DHT22;3415;51.148;7.014;2023-06-22T00:57:39;22.40;99.90
6756;DHT22;3415;51.148;7.014;2023-06-22T01:00:07;22.50;99.90
6756;DHT22;3415;51.148;7.014;2023-06-22T01:02:34;22.50;99.90
6756;DHT22;3415;51.148;7.014;2023-06-22T01:05:02;22.40;99.90
6756;DHT22;3415;51.148;7.014;2023-06-22T01:07:34;22.50;99.90
6756;DHT22;3415;51.148;7.014;2023-06-22T01:10:07;22.50;99.90
6756;DHT22;3415;51.148;7.014;2023-06-22T01:12:38;22.40;99.90
6756;DHT22;3415;51.148;7.014;2023-06-22T01:15:10;22.30;99.90
6756;DHT22;3415;51.148;7.014;2023-06-22T01:17:40;22.30;99.90
6756;DHT22;3415;51.148;7.014;2023-06-22T01:20:09;22.10;99.90
6756;DHT22;3415;51.148;7.014;2023-06-22T01:22:49;21.90;99.90
6756;DHT22;3415;51.148;7.014;2023-06-22T01:25:21;21.80;99.90
6756;DHT22;3415;51.148;7.014;2023-06-22T01:27:59;21.60;99.90
6756;DHT22;3415;51.148;7.014;2023-06-22T01:30:30;21.60;99.90
6756;DHT22;3415;51.148;7.014;2023-06-22T01:33:00;21.50;99.90
6756;DHT22;3415;51.148;7.014;2023-06-22T01:35:28;21.50;99.90
6756;DHT22;3415;51.148;7.014;2023-06-22T01:37:56;21.40;99.90
6756;DHT22;3415;51.148;7.014;2023-06-22T01:40:23;21.30;99.90
6756;DHT22;3415;51.148;7.014;2023-06-22T01:42:51;21.40;99.90
6756;DHT22;3415;51.148;7.014;2023-06-22T01:45:19;21.50;99.90
6756;DHT22;3415;51.148;7.014;2023-06-22T01:47:48;21.60;99.90
6756;DHT22;3415;51.148;7.014;2023-06-22T01:50:15;21.60;99.90
6756;DHT22;3415;51.148;7.014;2023-06-22T01:52:42;21.70;99.90
6756;DHT22;3415;51.148;7.014;2023-06-22T01:55:09;21.60;99.90
6756;DHT22;3415;51.148;7.014;2023-06-22T01:57:36;21.60;99.90
6756;DHT22;3415;51.148;7.014;2023-06-22T02:00:05;21.60;99.90
6756;DHT22;3415;51.148;7.014;2023-06-22T02:02:38;21.70;99.90
6756;DHT22;3415;51.148;7.014;2023-06-22T02:05:08;21.70;99.90
6756;DHT22;3415;51.148;7.014;2023-06-22T02:07:41;21.60;99.90
6756;DHT22;3415;51.148;7.014;2023-06-22T02:10:10;21.60;99.90
6756;DHT22;3415;51.148;7.014;2023-06-22T02:12:39;21.60;99.90
6756;DHT22;3415;51.148;7.014;2023-06-22T02:15:08;21.60;99.90
6756;DHT22;3415;51.148;7.014;2023-06-22T02:17:35;21.50;99.90
6756;DHT22;3415;51.148;7.014;2023-06-22T02:20:03;21.50;99.90
6756;DHT22;3415;51.148;7.014;2023-06-22T02:22:35;21.50;99.90
6756;DHT22;3415;51.148;7.014;2023-06-22T02:25:02;21.50;99.90
6756;DHT22;3415;51.148;7.014;2023-06-22T02:27:29;21.40;99.90
6756;DHT22;3415;51.148;7.014;2023-06-22T02:29:56;21.60;99.90
6756;DHT22;3415;51.148;7.014;2023-06-22T02:32:23;21.40;99.90
6756;DHT22;3415;51.148;7.014;2023-06-22T02:34:49;21.70;99.90
6756;DHT22;3415;51.148;7.014;2023-06-22T02:37:17;21.40;99.90
6756;DHT22;3415;51.148;7.014;2023-06-22T02:39:45;21.50;99.90
6756;DHT22;3415;51.148;7.014;2023-06-22T02:42:12;21.50;99.90
6756;DHT22;3415;51.148;7.014;2023-06-22T02:44:39;21.60;99.90
6756;DHT22;3415;51.148;7.014;2023-06-22T02:47:07;21.60;99.90
6756;DHT22;3415;51.148;7.014;2023-06-22T02:49:34;21.60;99.90
6756;DHT22;3415;51.148;7.014;2023-06-22T02:52:01;21.60;99.90
6756;DHT22;3415;51.148;7.014;2023-06-22T02:54:28;21.60;99.90
6756;DHT22;3415;51.148;7.014;2023-06-22T02:56:56;21.60;99.90
6756;DHT22;3415;51.148;7.014;2023-06-22T02:59:23;21.60;99.90
6756;DHT22;3415;51.148;7.014;2023-06-22T03:01:50;21.70;99.90
6756;DHT22;3415;51.148;7.014;2023-06-22T03:04:18;21.60;99.90
6756;DHT22;3415;51.148;7.014;2023-06-22T03:06:45;21.60;99.90
6756;DHT22;3415;51.148;7.014;2023-06-22T03:09:16;21.60;99.90
6756;DHT22;3415;51.148;7.014;2023-06-22T03:11:43;21.70;99.90
6756;DHT22;3415;51.148;7.014;2023-06-22T03:14:11;21.70;99.90
6756;DHT22;3415;51.148;7.014;2023-06-22T03:16:38;21.70;99.90
6756;DHT22;3415;51.148;7.014;2023-06-22T03:19:06;21.80;99.90
6756;DHT22;3415;51.148;7.014;2023-06-22T03:21:32;21.80;99.90
6756;DHT22;3415;51.148;7.014;2023-06-22T03:23:59;21.70;99.90
6756;DHT22;3415;51.148;7.014;2023-06-22T03:26:26;21.80;99.90
6756;DHT22;3415;51.148;7.014;2023-06-22T03:28:53;21.80;99.90
6756;DHT22;3415;51.148;7.014;2023-06-22T03:31:21;21.80;99.90
6756;DHT22;3415;51.148;7.014;2023-06-22T03:33:48;21.90;99.90
6756;DHT22;3415;51.148;7.014;2023-06-22T03:36:15;21.90;99.90
6756;DHT22;3415;51.148;7.014;2023-06-22T03:38:44;21.90;99.90
6756;DHT22;3415;51.148;7.014;2023-06-22T03:41:11;21.90;99.90
6756;DHT22;3415;51.148;7.014;2023-06-22T03:43:38;21.90;99.90
6756;DHT22;3415;51.148;7.014;2023-06-22T03:46:05;22.00;99.90
6756;DHT22;3415;51.148;7.014;2023-06-22T03:48:33;22.00;99.90
6756;DHT22;3415;51.148;7.014;2023-06-22T03:51:01;21.90;99.90
6756;DHT22;3415;51.148;7.014;2023-06-22T03:53:28;22.00;99.90
6756;DHT22;3415;51.148;7.014;2023-06-22T03:55:55;22.00;99.90
6756;DHT22;3415;51.148;7.014;2023-06-22T03:58:22;21.90;99.90
6756;DHT22;3415;51.148;7.014;2023-06-22T04:00:50;21.90;99.90
6756;DHT22;3415;51.148;7.014;2023-06-22T04:03:17;21.90;99.90
6756;DHT22;3415;51.148;7.014;2023-06-22T04:05:47;21.90;99.90
6756;DHT22;3415;51.148;7.014;2023-06-22T04:08:14;21.90;99.90
6756;DHT22;3415;51.148;7.014;2023-06-22T04:10:41;21.90;99.90
6756;DHT22;3415;51.148;7.014;2023-06-22T04:13:08;21.90;99.90
6756;DHT22;3415;51.148;7.014;2023-06-22T04:15:35;21.90;99.90
6756;DHT22;3415;51.148;7.014;2023-06-22T04:18:02;21.90;99.90
6756;DHT22;3415;51.148;7.014;2023-06-22T04:20:30;22.00;99.90
6756;DHT22;3415;51.148;7.014;2023-06-22T04:22:59;22.00;99.90
6756;DHT22;3415;51.148;7.014;2023-06-22T04:25:25;21.90;99.90
6756;DHT22;3415;51.148;7.014;2023-06-22T04:27:52;21.90;99.90
6756;DHT22;3415;51.148;7.014;2023-06-22T04:30:19;22.00;99.90
6756;DHT22;3415;51.148;7.014;2023-06-22T04:32:46;21.90;99.90
6756;DHT22;3415;51.148;7.014;2023-06-22T04:35:23;21.90;99.90
6756;DHT22;3415;51.148;7.014;2023-06-22T04:37:50;21.90;99.90
6756;DHT22;3415;51.148;7.014;2023-06-22T04:40:22;22.00;99.90
6756;DHT22;3415;51.148;7.014;2023-06-22T04:42:49;22.00;99.90
6756;DHT22;3415;51.148;7.014;2023-06-22T04:45:19;21.90;99.90
6756;DHT22;3415;51.148;7.014;2023-06-22T04:47:47;22.00;99.90
6756;DHT22;3415;51.148;7.014;2023-06-22T04:50:14;22.00;99.90
6756;DHT22;3415;51.148;7.014;2023-06-22T04:52:41;22.00;99.90
6756;DHT22;3415;51.148;7.014;2023-06-22T04:55:08;21.90;99.90
6756;DHT22;3415;51.148;7.014;2023-06-22T04:57:36;21.90;99.90
6756;DHT22;3415;51.148;7.014;2023-06-22T05:00:06;21.90;99.90
6756;DHT22;3415;51.148;7.014;2023-06-22T05:02:37;22.00;99.90
6756;DHT22;3415;51.148;7.014;2023-06-22T05:05:05;22.20;99.90
6756;DHT22;3415;51.148;7.014;2023-06-22T05:07:33;22.10;99.90
6756;DHT22;3415;51.148;7.014;2023-06-22T05:10:00;22.10;99.90
6756;DHT22;3415;51.148;7.014;2023-06-22T05:12:27;22.10;99.90
6756;DHT22;3415;51.148;7.014;2023-06-22T05:14:56;22.20;99.90
6756;DHT22;3415;51.148;7.014;2023-06-22T05:17:23;22.30;99.90
6756;DHT22;3415;51.148;7.014;2023-06-22T05:19:50;22.30;99.90
6756;DHT22;3415;51.148;7.014;2023-06-22T05:22:17;22.30;99.90
6756;DHT22;3415;51.148;7.014;2023-06-22T05:24:44;22.40;99.90
6756;DHT22;3415;51.148;7.014;2023-06-22T05:27:11;21.50;99.90
6756;DHT22;3415;51.148;7.014;2023-06-22T05:29:38;22.60;99.90
6756;DHT22;3415;51.148;7.014;2023-06-22T05:32:06;22.70;99.90
6756;DHT22;3415;51.148;7.014;2023-06-22T05:34:33;22.70;99.90
6756;DHT22;3415;51.148;7.014;2023-06-22T05:37:01;22.70;99.90
6756;DHT22;3415;51.148;7.014;2023-06-22T05:39:28;22.60;99.90
6756;DHT22;3415;51.148;7.014;2023-06-22T05:41:55;22.90;99.90
6756;DHT22;3415;51.148;7.014;2023-06-22T05:44:21;22.80;99.90
6756;DHT22;3415;51.148;7.014;2023-06-22T05:46:48;22.80;99.90
6756;DHT22;3415;51.148;7.014;2023-06-22T05:49:16;22.70;99.90
6756;DHT22;3415;51.148;7.014;2023-06-22T05:51:43;22.80;99.90
6756;DHT22;3415;51.148;7.014;2023-06-22T05:54:10;22.70;99.90
6756;DHT22;3415;51.148;7.014;2023-06-22T05:56:39;22.70;99.90
6756;DHT22;3415;51.148;7.014;2023-06-22T05:59:05;22.70;99.90
6756;DHT22;3415;51.148;7.014;2023-06-22T06:01:32;22.60;99.90
6756;DHT22;3415;51.148;7.014;2023-06-22T06:04:01;22.50;99.90
6756;DHT22;3415;51.148;7.014;2023-06-22T06:06:30;22.50;99.90
6756;DHT22;3415;51.148;7.014;2023-06-22T06:08:57;22.40;99.90
6756;DHT22;3415;51.148;7.014;2023-06-22T06:11:25;22.40;99.90
6756;DHT22;3415;51.148;7.014;2023-06-22T06:13:52;22.20;99.90
6756;DHT22;3415;51.148;7.014;2023-06-22T06:16:19;22.00;99.90
6756;DHT22;3415;51.148;7.014;2023-06-22T06:18:46;21.70;99.90
6756;DHT22;3415;51.148;7.014;2023-06-22T06:21:14;21.20;99.90
6756;DHT22;3415;51.148;7.014;2023-06-22T06:23:42;20.80;1.00
6756;DHT22;3415;51.148;7.014;2023-06-22T06:26:09;20.50;1.00
6756;DHT22;3415;51.148;7.014;2023-06-22T06:28:35;20.20;1.00
6756;DHT22;3415;51.148;7.014;2023-06-22T06:31:02;20.10;1.00
6756;DHT22;3415;51.148;7.014;2023-06-22T06:33:32;20.00;1.00
6756;DHT22;3415;51.148;7.014;2023-06-22T06:35:59;19.80;1.00
6756;DHT22;3415;51.148;7.014;2023-06-22T06:38:28;19.70;1.00
6756;DHT22;3415;51.148;7.014;2023-06-22T06:40:58;19.80;1.00
6756;DHT22;3415;51.148;7.014;2023-06-22T06:43:25;19.90;14.30
6756;DHT22;3415;51.148;7.014;2023-06-22T06:45:52;20.00;66.30
6756;DHT22;3415;51.148;7.014;2023-06-22T06:48:19;20.20;93.80
6756;DHT22;3415;51.148;7.014;2023-06-22T06:50:46;20.20;95.60
6756;DHT22;3415;51.148;7.014;2023-06-22T06:53:12;20.30;97.00
6756;DHT22;3415;51.148;7.014;2023-06-22T06:55:39;20.30;99.90
6756;DHT22;3415;51.148;7.014;2023-06-22T06:58:07;20.20;99.90
6756;DHT22;3415;51.148;7.014;2023-06-22T07:03:02;20.20;49.70
6756;DHT22;3415;51.148;7.014;2023-06-22T07:05:29;20.30;10.10
6756;DHT22;3415;51.148;7.014;2023-06-22T07:07:56;20.60;4.80
6756;DHT22;3415;51.148;7.014;2023-06-22T07:10:23;21.00;1.00
6756;DHT22;3415;51.148;7.014;2023-06-22T07:12:49;24.80;1.00
6756;DHT22;3415;51.148;7.014;2023-06-22T07:15:18;21.70;1.00
6756;DHT22;3415;51.148;7.014;2023-06-22T07:17:44;21.90;1.00
6756;DHT22;3415;51.148;7.014;2023-06-22T07:20:12;22.00;1.00
6756;DHT22;3415;51.148;7.014;2023-06-22T07:22:39;22.20;1.00
6756;DHT22;3415;51.148;7.014;2023-06-22T07:25:07;22.20;1.00
6756;DHT22;3415;51.148;7.014;2023-06-22T07:27:36;22.40;1.00
6756;DHT22;3415;51.148;7.014;2023-06-22T07:30:05;22.40;1.00
6756;DHT22;3415;51.148;7.014;2023-06-22T07:32:33;22.60;1.00
6756;DHT22;3415;51.148;7.014;2023-06-22T07:35:00;22.60;1.00
6756;DHT22;3415;51.148;7.014;2023-06-22T07:37:28;22.80;1.00
6756;DHT22;3415;51.148;7.014;2023-06-22T07:39:55;23.40;1.00
6756;DHT22;3415;51.148;7.014;2023-06-22T07:42:24;24.00;1.00
6756;DHT22;3415;51.148;7.014;2023-06-22T07:44:51;24.30;1.00
6756;DHT22;3415;51.148;7.014;2023-06-22T07:47:18;24.70;1.00
6756;DHT22;3415;51.148;7.014;2023-06-22T07:49:47;25.20;1.00
6756;DHT22;3415;51.148;7.014;2023-06-22T07:52:14;26.00;1.00
6756;DHT22;3415;51.148;7.014;2023-06-22T07:54:41;26.50;1.00
6756;DHT22;3415;51.148;7.014;2023-06-22T07:57:08;27.00;1.00
6756;DHT22;3415;51.148;7.014;2023-06-22T07:59:35;27.30;1.00
6756;DHT22;3415;51.148;7.014;2023-06-22T08:02:02;27.60;1.00
6756;DHT22;3415;51.148;7.014;2023-06-22T08:04:29;28.10;1.00
6756;DHT22;3415;51.148;7.014;2023-06-22T08:06:58;28.60;99.90
6756;DHT22;3415;51.148;7.014;2023-06-22T08:09:25;28.60;99.90
6756;DHT22;3415;51.148;7.014;2023-06-22T08:11:52;28.40;99.90
6756;DHT22;3415;51.148;7.014;2023-06-22T08:14:21;28.60;99.90
6756;DHT22;3415;51.148;7.014;2023-06-22T08:16:47;28.70;99.90
6756;DHT22;3415;51.148;7.014;2023-06-22T08:19:14;29.40;99.90
6756;DHT22;3415;51.148;7.014;2023-06-22T08:21:41;29.80;99.90
6756;DHT22;3415;51.148;7.014;2023-06-22T08:24:10;29.80;99.90
6756;DHT22;3415;51.148;7.014;2023-06-22T08:26:36;30.20;99.90
6756;DHT22;3415;51.148;7.014;2023-06-22T08:29:03;30.60;99.90
6756;DHT22;3415;51.148;7.014;2023-06-22T08:31:31;31.20;99.90
6756;DHT22;3415;51.148;7.014;2023-06-22T08:33:59;31.40;99.90
6756;DHT22;3415;51.148;7.014;2023-06-22T08:36:26;31.30;99.90
6756;DHT22;3415;51.148;7.014;2023-06-22T08:38:58;31.60;99.90
6756;DHT22;3415;51.148;7.014;2023-06-22T08:41:28;32.30;99.90
6756;DHT22;3415;51.148;7.014;2023-06-22T08:43:55;32.50;99.90
6756;DHT22;3415;51.148;7.014;2023-06-22T08:46:22;32.00;99.90
6756;DHT22;3415;51.148;7.014;2023-06-22T08:48:55;32.10;99.90
6756;DHT22;3415;51.148;7.014;2023-06-22T08:51:23;32.00;99.90
6756;DHT22;3415;51.148;7.014;2023-06-22T08:53:50;32.50;99.90
6756;DHT22;3415;51.148;7.014;2023-06-22T08:56:16;32.80;99.90
6756;DHT22;3415;51.148;7.014;2023-06-22T08:58:45;33.30;99.90
6756;DHT22;3415;51.148;7.014;2023-06-22T09:01:11;33.20;99.90
6756;DHT22;3415;51.148;7.014;2023-06-22T09:03:40;33.00;99.90
6756;DHT22;3415;51.148;7.014;2023-06-22T09:06:07;33.30;99.90
6756;DHT22;3415;51.148;7.014;2023-06-22T09:08:34;32.80;99.90
6756;DHT22;3415;51.148;7.014;2023-06-22T09:11:01;32.70;99.90
6756;DHT22;3415;51.148;7.014;2023-06-22T09:13:30;31.80;99.90
6756;DHT22;3415;51.148;7.014;2023-06-22T09:15:59;31.10;99.90
6756;DHT22;3415;51.148;7.014;2023-06-22T09:18:26;31.20;99.90
6756;DHT22;3415;51.148;7.014;2023-06-22T09:20:53;31.90;99.90
6756;DHT22;3415;51.148;7.014;2023-06-22T09:23:20;33.30;99.90
6756;DHT22;3415;51.148;7.014;2023-06-22T09:25:47;34.00;99.90
6756;DHT22;3415;51.148;7.014;2023-06-22T09:28:14;33.30;99.90
6756;DHT22;3415;51.148;7.014;2023-06-22T09:30:42;33.50;99.90
6756;DHT22;3415;51.148;7.014;2023-06-22T09:33:10;33.30;99.90
6756;DHT22;3415;51.148;7.014;2023-06-22T09:35:37;31.90;99.90
6756;DHT22;3415;51.148;7.014;2023-06-22T09:38:04;31.20;99.90
6756;DHT22;3415;51.148;7.014;2023-06-22T09:40:31;30.60;99.90
6756;DHT22;3415;51.148;7.014;2023-06-22T09:43:00;29.70;99.90
6756;DHT22;3415;51.148;7.014;2023-06-22T09:45:27;29.40;99.90
6756;DHT22;3415;51.148;7.014;2023-06-22T09:47:54;29.20;99.90
6756;DHT22;3415;51.148;7.014;2023-06-22T09:50:22;29.40;99.90
6756;DHT22;3415;51.148;7.014;2023-06-22T09:52:49;30.20;99.90
6756;DHT22;3415;51.148;7.014;2023-06-22T09:55:20;30.60;99.90
6756;DHT22;3415;51.148;7.014;2023-06-22T09:57:47;30.60;99.90
6756;DHT22;3415;51.148;7.014;2023-06-22T10:00:15;30.50;99.90
6756;DHT22;3415;51.148;7.014;2023-06-22T10:02:44;30.50;99.90
6756;DHT22;3415;51.148;7.014;2023-06-22T10:05:11;30.30;99.90
6756;DHT22;3415;51.148;7.014;2023-06-22T10:07:39;31.60;99.90
6756;DHT22;3415;51.148;7.014;2023-06-22T10:10:09;31.70;99.90
6756;DHT22;3415;51.148;7.014;2023-06-22T10:12:36;31.90;99.90
6756;DHT22;3415;51.148;7.014;2023-06-22T10:15:04;31.70;99.90
6756;DHT22;3415;51.148;7.014;2023-06-22T10:17:31;31.20;99.90
6756;DHT22;3415;51.148;7.014;2023-06-22T10:19:57;29.90;99.90
6756;DHT22;3415;51.148;7.014;2023-06-22T10:22:24;29.60;99.90
6756;DHT22;3415;51.148;7.014;2023-06-22T10:24:53;29.20;99.90
6756;DHT22;3415;51.148;7.014;2023-06-22T10:27:20;28.70;99.90
6756;DHT22;3415;51.148;7.014;2023-06-22T10:29:46;28.40;99.90
6756;DHT22;3415;51.148;7.014;2023-06-22T10:32:13;28.00;99.90
6756;DHT22;3415;51.148;7.014;2023-06-22T10:34:40;27.80;99.90
6756;DHT22;3415;51.148;7.014;2023-06-22T10:37:07;27.50;99.90
6756;DHT22;3415;51.148;7.014;2023-06-22T10:39:34;27.30;99.90
6756;DHT22;3415;51.148;7.014;2023-06-22T10:42:02;27.00;99.90
6756;DHT22;3415;51.148;7.014;2023-06-22T10:44:29;26.90;99.90
6756;DHT22;3415;51.148;7.014;2023-06-22T10:46:56;26.60;99.90
6756;DHT22;3415;51.148;7.014;2023-06-22T10:49:23;26.30;99.90
6756;DHT22;3415;51.148;7.014;2023-06-22T10:51:49;25.60;99.90
6756;DHT22;3415;51.148;7.014;2023-06-22T10:54:16;24.70;1.00
6756;DHT22;3415;51.148;7.014;2023-06-22T10:56:44;24.80;1.00
6756;DHT22;3415;51.148;7.014;2023-06-22T10:59:13;24.40;1.00
6756;DHT22;3415;51.148;7.014;2023-06-22T11:01:39;24.10;1.00
6756;DHT22;3415;51.148;7.014;2023-06-22T11:04:06;23.90;1.00
6756;DHT22;3415;51.148;7.014;2023-06-22T11:06:33;23.70;1.00
6756;DHT22;3415;51.148;7.014;2023-06-22T11:09:00;23.50;1.00
6756;DHT22;3415;51.148;7.014;2023-06-22T11:11:27;23.40;1.00
6756;DHT22;3415;51.148;7.014;2023-06-22T11:13:53;23.20;1.00
6756;DHT22;3415;51.148;7.014;2023-06-22T11:16:22;23.10;1.00
6756;DHT22;3415;51.148;7.014;2023-06-22T11:18:48;22.90;1.00
6756;DHT22;3415;51.148;7.014;2023-06-22T11:21:15;22.40;1.00
6756;DHT22;3415;51.148;7.014;2023-06-22T11:23:42;22.20;50.70
6756;DHT22;3415;51.148;7.014;2023-06-22T11:26:09;22.00;94.20
6756;DHT22;3415;51.148;7.014;2023-06-22T11:28:36;21.90;99.90
6756;DHT22;3415;51.148;7.014;2023-06-22T11:31:03;21.90;99.90
6756;DHT22;3415;51.148;7.014;2023-06-22T11:33:31;21.90;99.90
6756;DHT22;3415;51.148;7.014;2023-06-22T11:35:58;21.90;99.90
6756;DHT22;3415;51.148;7.014;2023-06-22T11:38:25;22.00;99.90
6756;DHT22;3415;51.148;7.014;2023-06-22T11:40:52;22.00;99.90
6756;DHT22;3415;51.148;7.014;2023-06-22T11:43:19;22.10;99.90
6756;DHT22;3415;51.148;7.014;2023-06-22T11:45:45;22.10;99.90
6756;DHT22;3415;51.148;7.014;2023-06-22T11:48:12;22.20;99.90
6756;DHT22;3415;51.148;7.014;2023-06-22T11:50:40;22.40;99.90
6756;DHT22;3415;51.148;7.014;2023-06-22T11:53:07;22.50;51.80
6756;DHT22;3415;51.148;7.014;2023-06-22T11:55:34;22.50;51.80
6756;DHT22;3415;51.148;7.014;2023-06-22T11:58:01;22.60;55.00
6756;DHT22;3415;51.148;7.014;2023-06-22T12:00:29;22.70;54.70
6756;DHT22;3415;51.148;7.014;2023-06-22T12:02:56;22.80;1.00
6756;DHT22;3415;51.148;7.014;2023-06-22T12:05:23;22.90;1.00
6756;DHT22;3415;51.148;7.014;2023-06-22T12:07:53;23.00;1.00
6756;DHT22;3415;51.148;7.014;2023-06-22T12:10:20;23.00;1.00
6756;DHT22;3415;51.148;7.014;2023-06-22T12:12:47;23.00;1.00
6756;DHT22;3415;51.148;7.014;2023-06-22T12:15:13;23.10;1.00
6756;DHT22;3415;51.148;7.014;2023-06-22T12:17:41;23.00;1.00
6756;DHT22;3415;51.148;7.014;2023-06-22T12:20:08;23.00;1.00
6756;DHT22;3415;51.148;7.014;2023-06-22T12:22:36;23.00;1.00
6756;DHT22;3415;51.148;7.014;2023-06-22T12:25:06;23.20;1.00
6756;DHT22;3415;51.148;7.014;2023-06-22T12:27:33;24.10;1.00
6756;DHT22;3415;51.148;7.014;2023-06-22T12:30:00;24.10;1.00
6756;DHT22;3415;51.148;7.014;2023-06-22T12:32:27;24.20;1.00
6756;DHT22;3415;51.148;7.014;2023-06-22T12:34:54;24.40;1.00
6756;DHT22;3415;51.148;7.014;2023-06-22T12:37:21;24.40;1.00
6756;DHT22;3415;51.148;7.014;2023-06-22T12:39:48;24.30;1.00
6756;DHT22;3415;51.148;7.014;2023-06-22T12:42:16;24.30;1.00
6756;DHT22;3415;51.148;7.014;2023-06-22T12:44:43;24.20;1.00
6756;DHT22;3415;51.148;7.014;2023-06-22T12:47:10;24.10;1.00
6756;DHT22;3415;51.148;7.014;2023-06-22T12:49:37;24.30;1.00
6756;DHT22;3415;51.148;7.014;2023-06-22T12:52:08;24.40;1.00
6756;DHT22;3415;51.148;7.014;2023-06-22T12:54:35;24.80;1.00
6756;DHT22;3415;51.148;7.014;2023-06-22T12:57:02;25.00;1.00
6756;DHT22;3415;51.148;7.014;2023-06-22T12:59:31;24.90;1.00
6756;DHT22;3415;51.148;7.014;2023-06-22T13:01:57;24.90;1.00
6756;DHT22;3415;51.148;7.014;2023-06-22T13:04:24;24.90;1.00
6756;DHT22;3415;51.148;7.014;2023-06-22T13:09:19;24.60;1.00
6756;DHT22;3415;51.148;7.014;2023-06-22T13:11:46;24.80;1.00
6756;DHT22;3415;51.148;7.014;2023-06-22T13:14:12;24.70;1.00
6756;DHT22;3415;51.148;7.014;2023-06-22T13:16:42;24.80;1.00
6756;DHT22;3415;51.148;7.014;2023-06-22T13:19:09;24.90;1.00
6756;DHT22;3415;51.148;7.014;2023-06-22T13:21:36;25.00;1.00
6756;DHT22;3415;51.148;7.014;2023-06-22T13:24:04;25.30;1.00
6756;DHT22;3415;51.148;7.014;2023-06-22T13:26:31;25.30;1.00
6756;DHT22;3415;51.148;7.014;2023-06-22T13:28:59;25.30;1.00
6756;DHT22;3415;51.148;7.014;2023-06-22T13:31:25;25.40;1.00
6756;DHT22;3415;51.148;7.014;2023-06-22T13:33:54;25.40;1.00
6756;DHT22;3415;51.148;7.014;2023-06-22T13:36:20;25.50;1.00
6756;DHT22;3415;51.148;7.014;2023-06-22T13:38:48;25.70;1.00
6756;DHT22;3415;51.148;7.014;2023-06-22T13:41:15;25.80;1.00
6756;DHT22;3415;51.148;7.014;2023-06-22T13:43:42;25.70;1.00
6756;DHT22;3415;51.148;7.014;2023-06-22T13:46:09;25.60;1.00
6756;DHT22;3415;51.148;7.014;2023-06-22T13:48:35;25.60;1.00
6756;DHT22;3415;51.148;7.014;2023-06-22T13:51:04;25.30;1.00
6756;DHT22;3415;51.148;7.014;2023-06-22T13:53:30;25.20;1.00
6756;DHT22;3415;51.148;7.014;2023-06-22T13:55:57;25.30;1.00
6756;DHT22;3415;51.148;7.014;2023-06-22T13:58:24;25.50;1.00
6756;DHT22;3415;51.148;7.014;2023-06-22T14:00:51;25.60;1.00
6756;DHT22;3415;51.148;7.014;2023-06-22T14:03:18;25.70;1.00
6756;DHT22;3415;51.148;7.014;2023-06-22T14:05:44;25.60;1.00
6756;DHT22;3415;51.148;7.014;2023-06-22T14:08:13;25.50;1.00
6756;DHT22;3415;51.148;7.014;2023-06-22T14:10:40;25.30;1.00
6756;DHT22;3415;51.148;7.014;2023-06-22T14:13:07;25.30;1.00
6756;DHT22;3415;51.148;7.014;2023-06-22T14:15:34;25.40;1.00
6756;DHT22;3415;51.148;7.014;2023-06-22T14:18:00;25.60;1.00
6756;DHT22;3415;51.148;7.014;2023-06-22T14:20:27;25.30;1.00
6756;DHT22;3415;51.148;7.014;2023-06-22T14:22:54;25.30;1.00
6756;DHT22;3415;51.148;7.014;2023-06-22T14:25:22;25.20;1.00
6756;DHT22;3415;51.148;7.014;2023-06-22T14:27:49;25.10;1.00
6756;DHT22;3415;51.148;7.014;2023-06-22T14:30:16;25.10;1.00
6756;DHT22;3415;51.148;7.014;2023-06-22T14:32:43;25.10;1.00
6756;DHT22;3415;51.148;7.014;2023-06-22T14:35:11;25.10;1.00
6756;DHT22;3415;51.148;7.014;2023-06-22T14:37:38;25.20;1.00
6756;DHT22;3415;51.148;7.014;2023-06-22T14:40:05;25.20;1.00
6756;DHT22;3415;51.148;7.014;2023-06-22T14:42:33;25.10;1.00
6756;DHT22;3415;51.148;7.014;2023-06-22T14:45:00;25.00;1.00
6756;DHT22;3415;51.148;7.014;2023-06-22T14:47:27;24.70;1.00
6756;DHT22;3415;51.148;7.014;2023-06-22T14:49:54;24.70;1.00
6756;DHT22;3415;51.148;7.014;2023-06-22T14:52:21;24.70;1.00
6756;DHT22;3415;51.148;7.014;2023-06-22T14:54:48;24.50;1.00
6756;DHT22;3415;51.148;7.014;2023-06-22T14:57:17;24.50;1.00
6756;DHT22;3415;51.148;7.014;2023-06-22T14:59:46;24.20;1.00
6756;DHT22;3415;51.148;7.014;2023-06-22T15:02:14;24.30;1.00
6756;DHT22;3415;51.148;7.014;2023-06-22T15:04:41;24.00;1.00
6756;DHT22;3415;51.148;7.014;2023-06-22T15:07:08;23.90;1.00
6756;DHT22;3415;51.148;7.014;2023-06-22T15:09:35;23.80;1.00
6756;DHT22;3415;51.148;7.014;2023-06-22T15:12:05;23.70;1.00
6756;DHT22;3415;51.148;7.014;2023-06-22T15:14:37;23.60;1.00
6756;DHT22;3415;51.148;7.014;2023-06-22T15:17:06;23.60;1.00
6756;DHT22;3415;51.148;7.014;2023-06-22T15:19:34;23.30;1.00
6756;DHT22;3415;51.148;7.014;2023-06-22T15:22:03;23.30;1.00
6756;DHT22;3415;51.148;7.014;2023-06-22T15:24:31;22.90;1.00
6756;DHT22;3415;51.148;7.014;2023-06-22T15:26:58;22.40;1.00
6756;DHT22;3415;51.148;7.014;2023-06-22T15:29:25;21.90;1.00
6756;DHT22;3415;51.148;7.014;2023-06-22T15:31:52;21.60;1.00
6756;DHT22;3415;51.148;7.014;2023-06-22T15:34:20;21.40;54.00
6756;DHT22;3415;51.148;7.014;2023-06-22T15:36:46;21.10;99.90
6756;DHT22;3415;51.148;7.014;2023-06-22T15:39:13;21.00;99.90
6756;DHT22;3415;51.148;7.014;2023-06-22T15:41:40;21.00;99.90
6756;DHT22;3415;51.148;7.014;2023-06-22T15:44:08;20.90;99.90
6756;DHT22;3415;51.148;7.014;2023-06-22T15:46:35;20.90;99.90
6756;DHT22;3415;51.148;7.014;2023-06-22T15:49:01;20.80;99.90
6756;DHT22;3415;51.148;7.014;2023-06-22T15:51:30;20.70;99.90
6756;DHT22;3415;51.148;7.014;2023-06-22T15:53:56;20.70;99.90
6756;DHT22;3415;51.148;7.014;2023-06-22T15:56:23;20.70;99.90
6756;DHT22;3415;51.148;7.014;2023-06-22T15:58:50;20.70;99.90
6756;DHT22;3415;51.148;7.014;2023-06-22T16:01:17;20.70;99.90
6756;DHT22;3415;51.148;7.014;2023-06-22T16:03:45;20.60;99.90
6756;DHT22;3415;51.148;7.014;2023-06-22T16:06:12;20.60;99.90
6756;DHT22;3415;51.148;7.014;2023-06-22T16:08:40;20.60;99.90
6756;DHT22;3415;51.148;7.014;2023-06-22T16:11:07;20.60;99.90
6756;DHT22;3415;51.148;7.014;2023-06-22T16:13:34;20.70;99.90